createdAt,value
2023-03-31T00:01:34.787Z,7.50
2023-03-31T00:04:05.219Z,7.40
2023-03-31T00:06:41.835Z,7.00
2023-03-31T00:09:11.805Z,6.90
2023-03-31T00:11:40.466Z,8.70
2023-03-31T00:14:08.147Z,6.90
2023-03-31T00:16:36.580Z,7.10
2023-03-31T00:19:04.345Z,7.30
2023-03-31T00:21:36.824Z,6.50
2023-03-31T00:24:05.830Z,7.50
2023-03-31T00:26:36.435Z,7.40
2023-03-31T00:31:35.110Z,7.30
2023-03-31T00:34:15.006Z,9.90
2023-03-31T00:36:56.894Z,9.90
2023-03-31T00:39:31.848Z,10.90
2023-03-31T00:41:59.004Z,10.00
2023-03-31T00:44:57.645Z,12.60
2023-03-31T00:47:24.894Z,10.20
2023-03-31T00:49:57.164Z,9.80
2023-03-31T00:52:42.369Z,10.30
2023-03-31T00:55:14.322Z,8.40
2023-03-31T00:57:41.764Z,11.50
2023-03-31T01:00:15.097Z,12.20
2023-03-31T01:02:51.677Z,10.30
2023-03-31T01:05:21.701Z,10.00
2023-03-31T01:07:49.123Z,7.80
2023-03-31T01:10:16.567Z,8.10
2023-03-31T01:13:00.523Z,10.40
2023-03-31T01:15:27.806Z,8.00
2023-03-31T01:17:57.642Z,9.50
2023-03-31T01:20:43.814Z,10.60
2023-03-31T01:23:55.863Z,10.00
2023-03-31T01:26:55.637Z,12.70
2023-03-31T01:29:41.508Z,9.00
2023-03-31T01:32:11.086Z,7.50
2023-03-31T01:35:21.060Z,6.90
2023-03-31T01:38:08.131Z,7.40
2023-03-31T01:41:16.267Z,8.70
2023-03-31T01:44:01.648Z,8.00
2023-03-31T01:46:37.289Z,9.40
2023-03-31T01:49:28.320Z,9.90
2023-03-31T01:52:07.763Z,9.60
2023-03-31T01:54:41.453Z,9.80
2023-03-31T01:57:17.647Z,10.40
2023-03-31T01:59:54.238Z,10.40
2023-03-31T02:02:27.666Z,11.30
2023-03-31T02:05:06.575Z,11.80
2023-03-31T02:07:41.532Z,9.90
2023-03-31T02:10:17.788Z,10.40
2023-03-31T02:12:49.067Z,13.00
2023-03-31T02:15:32.996Z,11.40
2023-03-31T02:18:00.979Z,8.20
2023-03-31T02:20:32.663Z,9.50
2023-03-31T02:23:00.853Z,14.90
2023-03-31T02:25:31.916Z,10.80
2023-03-31T02:28:04.795Z,10.70
2023-03-31T02:31:02.027Z,22.60
2023-03-31T02:33:38.203Z,20.90
2023-03-31T02:36:09.583Z,11.40
2023-03-31T02:38:39.659Z,11.60
2023-03-31T02:41:07.794Z,12.20
2023-03-31T02:43:36.170Z,14.30
2023-03-31T02:46:13.665Z,12.30
2023-03-31T02:48:45.775Z,13.80
2023-03-31T02:51:40.078Z,15.80
2023-03-31T02:54:26.107Z,13.00
2023-03-31T02:57:05.963Z,10.10
2023-03-31T02:59:33.798Z,10.80
2023-03-31T03:02:10.495Z,10.80
2023-03-31T03:05:05.592Z,10.50
2023-03-31T03:08:01.175Z,9.10
2023-03-31T03:10:36.638Z,8.60
2023-03-31T03:13:13.136Z,6.80
2023-03-31T03:15:48.765Z,6.80
2023-03-31T03:18:26.129Z,7.70
2023-03-31T03:20:53.284Z,7.20
2023-03-31T03:23:20.850Z,8.00
2023-03-31T03:25:51.292Z,8.00
2023-03-31T03:28:21.400Z,7.90
2023-03-31T03:30:51.593Z,8.90
2023-03-31T03:33:20.304Z,6.00
2023-03-31T03:35:49.259Z,6.20
2023-03-31T03:38:16.751Z,7.00
2023-03-31T03:40:49.581Z,6.60
2023-03-31T03:43:25.294Z,7.10
2023-03-31T03:45:52.777Z,8.10
2023-03-31T03:48:26.999Z,7.80
2023-03-31T03:50:57.412Z,8.20
2023-03-31T03:53:24.899Z,9.00
2023-03-31T03:55:59.257Z,6.30
2023-03-31T03:58:26.528Z,5.60
2023-03-31T04:01:35.674Z,7.40
2023-03-31T04:04:04.460Z,8.30
2023-03-31T04:06:54.300Z,7.30
2023-03-31T04:09:21.883Z,7.40
2023-03-31T04:11:54.257Z,7.70
2023-03-31T04:14:21.671Z,8.10
2023-03-31T04:16:52.960Z,5.70
2023-03-31T04:19:51.017Z,6.30
2023-03-31T04:22:41.672Z,7.50
2023-03-31T04:25:17.774Z,5.80
2023-03-31T04:27:57.595Z,7.20
2023-03-31T04:30:31.088Z,7.20
2023-03-31T04:33:02.934Z,8.80
2023-03-31T04:35:50.494Z,8.30
2023-03-31T04:38:30.769Z,5.20
2023-03-31T04:41:01.390Z,7.00
2023-03-31T04:43:28.866Z,8.30
2023-03-31T04:45:56.312Z,8.20
2023-03-31T04:48:23.899Z,7.70
2023-03-31T04:50:52.377Z,9.80
2023-03-31T04:53:22.955Z,8.00
2023-03-31T04:56:00.595Z,8.00
2023-03-31T04:58:28.454Z,7.40
2023-03-31T05:01:00.385Z,5.10
2023-03-31T05:03:27.702Z,5.10
2023-03-31T05:05:59.224Z,5.90
2023-03-31T05:08:27.497Z,6.50
2023-03-31T05:10:56.044Z,6.50
2023-03-31T05:13:25.735Z,6.80
2023-03-31T05:15:52.972Z,7.00
2023-03-31T05:18:23.636Z,7.30
2023-03-31T05:20:50.804Z,5.20
2023-03-31T05:23:21.102Z,5.30
2023-03-31T05:25:51.058Z,6.30
2023-03-31T05:28:21.826Z,7.60
2023-03-31T05:33:27.827Z,7.20
2023-03-31T05:35:56.489Z,8.40
2023-03-31T05:38:23.680Z,7.10
2023-03-31T05:40:51.204Z,5.30
2023-03-31T05:43:21.488Z,5.00
2023-03-31T05:45:52.326Z,5.90
2023-03-31T05:48:45.828Z,8.10
2023-03-31T05:51:15.595Z,9.20
2023-03-31T05:53:44.259Z,6.60
2023-03-31T05:56:12.423Z,7.60
2023-03-31T05:59:00.530Z,8.20
2023-03-31T06:01:30.091Z,5.20
2023-03-31T06:04:00.865Z,6.30
2023-03-31T06:06:30.807Z,6.40
2023-03-31T06:09:31.073Z,6.70
2023-03-31T06:12:08.471Z,5.50
2023-03-31T06:14:38.010Z,6.30
2023-03-31T06:17:15.658Z,6.50
2023-03-31T06:19:46.913Z,6.70
2023-03-31T06:22:22.944Z,4.80
2023-03-31T06:24:52.888Z,5.00
2023-03-31T06:27:23.173Z,5.10
2023-03-31T06:30:11.334Z,5.60
2023-03-31T06:32:38.890Z,6.50
2023-03-31T06:35:06.770Z,6.90
2023-03-31T06:37:34.837Z,7.10
2023-03-31T06:40:02.239Z,5.10
2023-03-31T06:42:32.435Z,5.20
2023-03-31T06:44:59.788Z,5.60
2023-03-31T06:47:30.075Z,5.30
2023-03-31T06:49:58.182Z,5.30
2023-03-31T06:52:25.282Z,5.90
2023-03-31T06:54:53.200Z,5.70
2023-03-31T06:57:22.819Z,5.40
2023-03-31T06:59:50.550Z,6.80
2023-03-31T07:02:17.786Z,4.70
2023-03-31T07:04:48.092Z,13.90
2023-03-31T07:07:15.657Z,6.10
2023-03-31T07:09:43.238Z,5.50
2023-03-31T07:12:11.679Z,5.50
2023-03-31T07:14:39.286Z,5.20
2023-03-31T07:17:06.820Z,5.40
2023-03-31T07:19:42.298Z,4.00
2023-03-31T07:22:09.712Z,4.40
2023-03-31T07:24:45.706Z,4.70
2023-03-31T07:27:16.137Z,4.30
2023-03-31T07:29:46.573Z,4.70
2023-03-31T07:32:19.902Z,4.40
2023-03-31T07:34:47.033Z,4.50
2023-03-31T07:37:19.825Z,4.50
2023-03-31T07:42:38.148Z,3.50
2023-03-31T07:45:16.670Z,3.80
2023-03-31T07:47:52.762Z,4.20
2023-03-31T07:50:36.798Z,5.00
2023-03-31T07:53:05.920Z,5.10
2023-03-31T07:55:32.848Z,5.10
2023-03-31T07:58:09.272Z,5.00
2023-03-31T08:00:40.901Z,3.60
2023-03-31T08:03:09.817Z,4.30
2023-03-31T08:05:37.757Z,4.50
2023-03-31T08:08:07.568Z,4.80
2023-03-31T08:10:49.811Z,4.70
2023-03-31T08:13:34.456Z,5.10
2023-03-31T08:16:08.127Z,5.50
2023-03-31T08:18:35.792Z,5.90
2023-03-31T08:21:12.386Z,4.30
2023-03-31T08:23:39.703Z,4.50
2023-03-31T08:26:17.903Z,4.60
2023-03-31T08:28:48.636Z,5.30
2023-03-31T08:31:34.728Z,5.20
2023-03-31T08:34:28.445Z,5.60
2023-03-31T08:37:01.225Z,5.40
2023-03-31T08:39:28.927Z,6.20
2023-03-31T08:42:13.956Z,5.50
2023-03-31T08:44:53.823Z,4.80
2023-03-31T08:47:24.575Z,4.50
2023-03-31T08:52:31.822Z,5.00
2023-03-31T08:55:04.878Z,5.50
2023-03-31T08:57:52.040Z,5.60
2023-03-31T09:00:21.639Z,5.40
2023-03-31T09:03:00.615Z,6.50
2023-03-31T09:06:00.240Z,6.10
2023-03-31T09:08:41.407Z,6.70
2023-03-31T09:11:20.567Z,6.90
2023-03-31T09:14:06.633Z,6.90
2023-03-31T09:17:14.197Z,5.30
2023-03-31T09:20:09.587Z,6.30
2023-03-31T09:22:40.763Z,6.60
2023-03-31T09:25:41.395Z,7.30
2023-03-31T09:28:44.431Z,7.20
2023-03-31T09:31:34.360Z,7.20
2023-03-31T09:34:14.799Z,8.20
2023-03-31T09:36:47.983Z,7.20
2023-03-31T09:39:51.110Z,7.50
2023-03-31T09:42:34.026Z,7.70
2023-03-31T09:45:20.462Z,8.30
2023-03-31T09:48:23.398Z,7.90
2023-03-31T09:50:57.982Z,8.90
2023-03-31T09:53:53.460Z,8.70
2023-03-31T09:56:54.166Z,8.00
2023-03-31T09:59:52.392Z,8.30
2023-03-31T10:02:40.590Z,8.30
2023-03-31T10:05:56.355Z,7.80
2023-03-31T10:08:27.994Z,8.20
2023-03-31T10:11:11.493Z,8.50
2023-03-31T10:14:02.358Z,8.30
2023-03-31T10:16:30.923Z,8.10
2023-03-31T10:19:20.633Z,7.90
2023-03-31T10:21:58.754Z,8.20
2023-03-31T10:24:27.710Z,7.40
2023-03-31T10:26:59.032Z,7.90
2023-03-31T10:29:33.589Z,7.80
2023-03-31T10:32:17.051Z,8.40
2023-03-31T10:35:13.144Z,7.30
2023-03-31T10:37:49.649Z,8.40
2023-03-31T10:41:19.717Z,7.30
2023-03-31T10:44:02.683Z,7.30
2023-03-31T10:47:21.362Z,7.20
2023-03-31T10:50:17.592Z,7.00
2023-03-31T10:53:26.014Z,6.90
2023-03-31T10:56:09.979Z,7.30
2023-03-31T10:59:16.985Z,6.80
2023-03-31T11:02:39.339Z,6.10
2023-03-31T11:05:41.833Z,5.90
2023-03-31T11:09:15.564Z,6.00
2023-03-31T11:12:41.571Z,5.20
2023-03-31T11:15:15.604Z,5.50
2023-03-31T11:18:28.912Z,5.50
2023-03-31T11:21:46.080Z,5.40
2023-03-31T11:25:06.329Z,4.40
2023-03-31T11:28:12.222Z,4.70
2023-03-31T11:31:12.148Z,4.70
2023-03-31T11:34:14.059Z,5.00
2023-03-31T11:37:12.104Z,4.70
2023-03-31T11:40:30.287Z,4.80
2023-03-31T11:43:34.200Z,4.60
2023-03-31T11:46:30.716Z,4.80
2023-03-31T11:49:42.402Z,4.10
2023-03-31T11:52:18.207Z,4.70
2023-03-31T11:55:00.176Z,4.10
2023-03-31T11:58:22.429Z,3.80
2023-03-31T12:01:08.629Z,4.00
2023-03-31T12:04:25.262Z,3.90
2023-03-31T12:07:36.084Z,4.70
2023-03-31T12:10:21.178Z,4.20
2023-03-31T12:13:41.320Z,3.70
2023-03-31T12:16:13.507Z,3.50
2023-03-31T12:19:22.764Z,3.60
2023-03-31T12:22:17.352Z,3.70
2023-03-31T12:24:47.129Z,3.50
2023-03-31T12:27:35.396Z,4.00
2023-03-31T12:30:39.296Z,4.20
2023-03-31T12:33:27.818Z,4.00
2023-03-31T12:36:21.637Z,3.60
2023-03-31T12:39:21.369Z,4.20
2023-03-31T12:41:58.911Z,3.90
2023-03-31T12:44:51.358Z,3.70
2023-03-31T12:47:45.880Z,3.60
2023-03-31T12:50:33.094Z,3.70
2023-03-31T12:53:19.035Z,4.00
2023-03-31T12:56:09.842Z,3.40
2023-03-31T12:58:43.540Z,3.40
2023-03-31T13:01:36.716Z,3.50
2023-03-31T13:04:21.592Z,3.60
2023-03-31T13:08:00.686Z,3.20
2023-03-31T13:10:40.017Z,3.90
2023-03-31T13:13:15.934Z,3.50
2023-03-31T13:15:55.735Z,3.50
2023-03-31T13:18:29.028Z,2.90
2023-03-31T13:23:46.680Z,2.70
2023-03-31T13:26:46.489Z,2.80
2023-03-31T13:29:14.634Z,3.10
2023-03-31T13:33:11.298Z,4.40
2023-03-31T13:35:46.958Z,4.50
2023-03-31T13:38:23.286Z,4.30
2023-03-31T13:40:58.363Z,4.20
2023-03-31T13:44:02.386Z,4.60
2023-03-31T13:46:45.692Z,4.40
2023-03-31T13:49:37.650Z,4.50
2023-03-31T13:52:09.535Z,4.50
2023-03-31T13:55:33.080Z,4.20
2023-03-31T13:58:33.494Z,4.10
2023-03-31T14:01:23.447Z,5.00
2023-03-31T14:04:08.875Z,5.30
2023-03-31T14:06:49.903Z,4.10
2023-03-31T14:10:01.244Z,2.90
2023-03-31T14:12:36.570Z,2.70
2023-03-31T14:15:04.669Z,2.70
2023-03-31T14:17:55.232Z,2.60
2023-03-31T14:20:33.128Z,2.50
2023-03-31T14:23:18.539Z,3.60
2023-03-31T14:26:54.309Z,3.30
2023-03-31T14:30:05.794Z,2.40
2023-03-31T14:33:10.390Z,2.60
2023-03-31T14:35:54.323Z,2.80
2023-03-31T14:38:37.904Z,2.60
2023-03-31T14:44:05.725Z,4.00
2023-03-31T14:46:46.436Z,2.70
2023-03-31T14:49:44.933Z,3.30
2023-03-31T14:52:18.803Z,2.70
2023-03-31T14:55:03.319Z,3.10
2023-03-31T14:57:37.111Z,3.90
2023-03-31T15:00:21.944Z,3.10
2023-03-31T15:02:55.790Z,2.80
2023-03-31T15:05:31.505Z,3.10
2023-03-31T15:08:11.199Z,4.10
2023-03-31T15:10:44.337Z,3.80
2023-03-31T15:13:26.868Z,4.90
2023-03-31T15:16:05.286Z,3.50
2023-03-31T15:18:32.622Z,3.70
2023-03-31T15:20:59.903Z,3.60
2023-03-31T15:23:28.240Z,3.20
2023-03-31T15:26:09.391Z,4.00
2023-03-31T15:28:57.886Z,3.20
2023-03-31T15:31:27.231Z,3.30
2023-03-31T15:33:54.646Z,4.10
2023-03-31T15:36:22.577Z,5.00
2023-03-31T15:38:56.198Z,5.70
2023-03-31T15:41:29.396Z,5.40
2023-03-31T15:44:30.365Z,6.30
2023-03-31T15:47:09.494Z,6.20
2023-03-31T15:50:07.613Z,4.60
2023-03-31T15:52:36.114Z,3.30
2023-03-31T15:55:23.687Z,3.70
2023-03-31T15:57:51.407Z,5.80
2023-03-31T16:00:46.716Z,5.80
2023-03-31T16:03:17.298Z,4.70
2023-03-31T16:06:00.704Z,5.30
2023-03-31T16:08:33.322Z,6.30
2023-03-31T16:11:21.369Z,7.80
2023-03-31T16:13:53.432Z,4.60
2023-03-31T16:16:30.964Z,8.30
2023-03-31T16:19:10.163Z,8.20
2023-03-31T16:21:40.954Z,5.80
2023-03-31T16:24:10.556Z,5.50
2023-03-31T16:26:44.200Z,5.70
2023-03-31T16:29:20.850Z,5.40
2023-03-31T16:31:49.189Z,5.70
2023-03-31T16:34:16.755Z,5.60
2023-03-31T16:36:43.763Z,6.40
2023-03-31T16:39:13.679Z,7.00
2023-03-31T16:41:40.990Z,7.70
2023-03-31T16:44:11.599Z,8.50
2023-03-31T16:46:43.144Z,7.20
2023-03-31T16:49:13.613Z,9.90
2023-03-31T16:51:46.226Z,8.60
2023-03-31T16:57:05.668Z,10.50
2023-03-31T16:59:32.644Z,8.30
2023-03-31T17:02:21.101Z,8.00
2023-03-31T17:05:24.321Z,6.60
2023-03-31T17:08:10.310Z,5.10
2023-03-31T17:10:54.376Z,4.50
2023-03-31T17:13:25.153Z,4.70
2023-03-31T17:16:01.399Z,4.80
2023-03-31T17:18:38.405Z,5.00
2023-03-31T17:21:13.796Z,6.30
2023-03-31T17:23:46.307Z,6.80
2023-03-31T17:26:14.471Z,5.90
2023-03-31T17:28:42.009Z,6.90
2023-03-31T17:31:18.666Z,6.10
2023-03-31T17:33:46.483Z,5.70
2023-03-31T17:36:13.968Z,6.60
2023-03-31T17:38:42.022Z,6.10
2023-03-31T17:41:12.848Z,5.70
2023-03-31T17:43:46.279Z,5.30
2023-03-31T17:46:14.155Z,5.70
2023-03-31T17:48:43.851Z,5.80
2023-03-31T17:51:34.980Z,6.50
2023-03-31T17:54:05.050Z,5.40
2023-03-31T17:56:33.463Z,5.90
2023-03-31T17:59:00.685Z,4.20
2023-03-31T18:01:28.716Z,5.70
2023-03-31T18:03:56.741Z,5.00
2023-03-31T18:06:27.785Z,5.20
2023-03-31T18:08:57.140Z,5.20
2023-03-31T18:11:24.630Z,6.40
2023-03-31T18:13:56.708Z,5.80
2023-03-31T18:16:25.221Z,5.50
2023-03-31T18:18:52.664Z,6.70
2023-03-31T18:21:27.182Z,5.10
2023-03-31T18:23:57.833Z,5.60
2023-03-31T18:26:26.124Z,4.90
2023-03-31T18:28:55.493Z,4.80
2023-03-31T18:31:24.810Z,4.80
2023-03-31T18:33:54.709Z,4.70
2023-03-31T18:36:22.785Z,5.10
2023-03-31T18:38:50.141Z,4.70
2023-03-31T18:41:19.336Z,5.20
2023-03-31T18:43:55.478Z,5.00
2023-03-31T18:46:22.621Z,5.10
2023-03-31T18:48:50.282Z,5.30
2023-03-31T18:51:17.320Z,6.40
2023-03-31T18:53:44.471Z,6.20
2023-03-31T18:56:14.817Z,5.60
2023-03-31T18:58:44.993Z,5.50
2023-03-31T19:01:12.650Z,5.10
2023-03-31T19:03:43.891Z,5.00
2023-03-31T19:06:17.728Z,4.80
2023-03-31T19:08:46.444Z,4.70
2023-03-31T19:11:15.454Z,6.00
2023-03-31T19:13:46.086Z,6.70
2023-03-31T19:16:42.223Z,6.20
2023-03-31T19:19:20.792Z,13.10
2023-03-31T19:21:57.339Z,6.70
2023-03-31T19:24:24.831Z,5.40
2023-03-31T19:26:56.978Z,5.90
2023-03-31T19:29:23.978Z,4.70
2023-03-31T19:31:55.037Z,4.90
2023-03-31T19:34:25.484Z,5.10
2023-03-31T19:36:55.829Z,6.30
2023-03-31T19:39:28.740Z,54.40
2023-03-31T19:41:58.635Z,45.60
2023-03-31T19:44:29.328Z,26.80
2023-03-31T19:49:27.325Z,19.90
2023-03-31T19:52:08.460Z,20.80
2023-03-31T19:54:42.193Z,17.30
2023-03-31T19:57:11.706Z,12.30
2023-03-31T19:59:52.325Z,12.70
2023-03-31T20:02:21.250Z,11.20
2023-03-31T20:04:56.710Z,8.80
2023-03-31T20:07:26.936Z,8.80
2023-03-31T20:09:55.811Z,7.50
2023-03-31T20:12:25.335Z,7.40
2023-03-31T20:17:25.473Z,12.80
2023-03-31T20:19:58.263Z,16.30
2023-03-31T20:22:40.582Z,9.90
2023-03-31T20:25:19.069Z,6.40
2023-03-31T20:27:48.714Z,6.60
2023-03-31T20:30:22.289Z,7.30
2023-03-31T20:32:52.861Z,7.10
2023-03-31T20:35:25.134Z,7.20
2023-03-31T20:37:52.058Z,5.60
2023-03-31T20:40:19.029Z,6.60
2023-03-31T20:42:54.142Z,11.40
2023-03-31T20:45:26.263Z,9.90
2023-03-31T20:48:07.844Z,9.80
2023-03-31T20:50:39.516Z,12.70
2023-03-31T20:53:07.888Z,13.80
2023-03-31T20:55:35.237Z,13.60
2023-03-31T20:58:12.993Z,12.80
2023-03-31T21:00:43.026Z,14.00
2023-03-31T21:03:30.028Z,17.90
2023-03-31T21:06:11.210Z,18.00
2023-03-31T21:08:47.923Z,13.50
2023-03-31T21:11:24.244Z,14.00
2023-03-31T21:13:57.041Z,15.40
2023-03-31T21:16:29.769Z,14.90
2023-03-31T21:18:59.879Z,14.40
2023-03-31T21:21:27.398Z,14.30
2023-03-31T21:23:54.539Z,12.00
2023-03-31T21:26:27.518Z,12.30
2023-03-31T21:29:05.461Z,12.80
2023-03-31T21:31:45.124Z,13.70
2023-03-31T21:36:55.752Z,11.10
2023-03-31T21:39:27.721Z,10.80
2023-03-31T21:42:00.167Z,7.80
2023-03-31T21:44:42.592Z,8.60
2023-03-31T21:47:15.675Z,9.10
2023-03-31T21:49:50.041Z,6.70
2023-03-31T21:52:42.946Z,8.20
2023-03-31T21:55:15.640Z,8.00
2023-03-31T21:57:49.543Z,8.10
2023-03-31T22:00:53.928Z,7.30
2023-03-31T22:03:32.247Z,11.60
2023-03-31T22:06:10.561Z,7.60
2023-03-31T22:09:21.440Z,6.70
2023-03-31T22:12:11.291Z,6.50
2023-03-31T22:15:15.860Z,7.10
2023-03-31T22:17:49.033Z,5.20
2023-03-31T22:20:44.450Z,4.70
2023-03-31T22:23:14.942Z,5.40
2023-03-31T22:25:52.061Z,6.60
2023-03-31T22:28:22.143Z,7.00
2023-03-31T22:30:52.813Z,9.70
2023-03-31T22:33:27.747Z,9.10
2023-03-31T22:36:21.789Z,7.80
2023-03-31T22:39:11.282Z,6.70
2023-03-31T22:41:46.044Z,6.60
2023-03-31T22:44:41.742Z,6.90
2023-03-31T22:47:49.880Z,8.80
2023-03-31T22:50:35.910Z,5.10
2023-03-31T22:53:09.960Z,5.70
2023-03-31T22:56:17.922Z,5.20
2023-03-31T22:59:28.290Z,5.70
2023-03-31T23:02:11.722Z,8.70
2023-03-31T23:05:14.120Z,6.60
2023-03-31T23:07:59.601Z,6.00
2023-03-31T23:10:39.559Z,6.20
2023-03-31T23:13:53.718Z,6.30
2023-03-31T23:16:40.881Z,3.80
2023-03-31T23:19:34.375Z,4.20
2023-03-31T23:22:21.828Z,5.10
2023-03-31T23:25:20.768Z,5.30
2023-03-31T23:28:16.622Z,7.00
2023-03-31T23:31:05.145Z,10.30
2023-03-31T23:35:04.158Z,10.50
2023-03-31T23:37:49.889Z,11.00
2023-03-31T23:40:48.572Z,11.20
2023-03-31T23:43:34.259Z,5.80
2023-03-31T23:46:37.297Z,5.90
2023-03-31T23:49:53.232Z,6.90
2023-03-31T23:52:44.224Z,7.50
2023-03-31T23:55:27.277Z,6.60
2023-03-31T23:59:00.530Z,6.00
